x

Tanner Bank - 121nm West Of San Diego, Ca (46047) Wave Buoy

6:50 - Sat 22nd Jul 2017 All times are PDT. -7 hours from GMT.

  • Sig Wave height 7.2ft
  • Swell Direction
  • Peak Period 9s
  • Average Period 6s
  • Wind
    18mph, 20mph gusts
  • Sea Temp 63°f
  • Air Temp 61°f
  • Sea Pressure 1012.9mb
  • Tanner Bank - 121nm West Of San Diego, Ca
  • Tanner Bank - 121nm West Of San Diego, Ca

More Historic Weather Station data

Upgrade to MSW Pro to gain access to the past 30 days of data for over 8000 Wavebouys and Weather Stations around the globe.

Join Pro

Comparision Forecast

View Surf forecast
   
sam. 07/22 6:50 7ft 9s 6s 18 20 mph 1012.9mb 63f 61f
5:50 7ft 8s 6s 16 20 mph 1012.6mb 63f 62f
4:50 7ft 8s 6s 20 25 mph 1012.4mb 63f 62f
3:50 7ft 8s 6s 20 22 mph 1012.6mb 63f 62f
2:50 6.5ft 8s 6s 18 20 mph 1012.9mb 63f 62f
1:50 7.5ft 8s 6s 16 20 mph 1013.2mb 63f 62f
12:50 8ft 8s 6s 16 20 mph 1013.3mb 63f 62f
ven. 07/21 11:50 8ft 8s 6s 16 20 mph 1013.5mb 63f 62f
10:50 8ft 8s 6s 18 20 mph 1013.5mb 63f 62f
9:50 8ft 8s 6s 18 22 mph 1013.2mb 63f 62f
8:50 7ft 8s 6s 20 25 mph 1012.8mb 63f 62f
7:50 7ft 8s 6s 22 27 mph 1012.4mb 63f 62f
6:50 6.5ft 8s 6s 20 25 mph 1012.6mb 63f 61f
5:50 6ft 9s 6s 20 25 mph 1012.6mb 63f 61f
4:50 5.5ft 8s 6s 20 25 mph 1013.2mb 63f 61f
3:50 5ft 8s 6s 18 22 mph 1013.7mb 63f 61f
2:50 6ft 8s 6s 18 20 mph 1014.1mb 63f 62f
1:50 6.5ft 8s 6s 16 18 mph 1014.7mb 63f 62f
12:50 7ft 8s 7s 16 18 mph 1015.2mb 63f 62f
11:50 7ft 8s 7s 13 18 mph 1015.3mb 63f 63f
10:50 7.5ft 8s 7s 16 18 mph 1015mb 63f 62f
9:50 7ft 8s 6s 13 16 mph 1015mb 63f 62f
8:50 7ft 8s 6s 16 18 mph 1014.8mb 63f 62f
7:50 7.5ft 8s 6s 13 18 mph 1014.8mb 63f 61f
6:50 7ft 8s 6s 16 18 mph 1014.3mb 63f 62f
5:50 7ft 8s 6s 18 22 mph 1013.7mb 63f 61f
4:50 7ft 8s 6s 20 22 mph 1013.4mb 63f 62f
3:50 6ft 8s 6s 18 22 mph 1013.6mb 63f 62f
2:50 6ft 8s 6s 16 20 mph 1014.1mb 63f 62f
1:50 7ft 8s 6s 18 22 mph 1014.3mb 64f 62f
12:50 7ft 8s 6s 16 20 mph 1014.8mb 64f 62f
jeu. 07/20 11:50 7ft 8s 6s 16 20 mph 1015.3mb 64f 61f
10:50 7.5ft 8s 6s 18 22 mph 1015.4mb 64f 61f
9:50 7ft 8s 6s 18 22 mph 1015.1mb 64f 60f
8:50 6.5ft 8s 6s 18 22 mph 1014.9mb 64f 61f
7:50 6ft 8s 6s 18 25 mph 1014.7mb 64f 61f
6:50 6.5ft 9s 6s 20 25 mph 1014.5mb 64f 61f
5:50 6.5ft 9s 6s 18 25 mph 1014.4mb 64f 61f
4:50 6ft 9s 6s 20 25 mph 1014.6mb 64f 62f
3:50 6ft 9s 6s 20 22 mph 1015.4mb 64f 62f
2:50 6.5ft 9s 6s 18 20 mph 1016.1mb 64f 62f
1:50 7ft 8s 6s 16 20 mph 1016.6mb 64f 62f
12:50 7.5ft 9s 7s 16 20 mph 1017mb 64f 62f
11:50 7.5ft 8s 6s 16 20 mph 1017.1mb 64f 61f
10:50 8ft 8s 7s 16 18 mph 1017mb 64f 61f
9:50 8ft 9s 6s 16 20 mph 1016.7mb 64f 61f
8:50 7ft 8s 6s 18 22 mph 1016.7mb 64f 61f
7:50 7.5ft 8s 7s 18 20 mph 1016.3mb 64f 61f
6:50 7ft 8s 6s 13 18 mph 1016mb 64f 61f
5:50 6.5ft 8s 6s 18 20 mph 1015.5mb 64f 61f
4:50 6.5ft 8s 6s 13 18 mph 1015.3mb 64f 62f
3:50 6ft 8s 6s 13 16 mph 1015.4mb 64f 62f
2:50 6ft 8s 6s 16 20 mph 1015.2mb 64f 63f
1:50 6ft 8s 6s 13 16 mph 1015.2mb 64f 63f
12:50 6ft 8s 6s 13 16 mph 1015.2mb 64f 63f
mer. 07/19 11:50 6ft 8s 6s 13 16 mph 1015.7mb 64f 63f
10:50 6ft 9s 6s 13 18 mph 1015.7mb 64f 63f
9:50 6ft 8s 6s 16 20 mph 1015.1mb 65f 62f
8:50 6ft 8s 6s 16 20 mph 1014.4mb 65f 62f
7:50 5.5ft 8s 6s 18 22 mph 1014.1mb 65f 62f
6:50 6ft 9s 6s 16 18 mph 1013.8mb 65f 62f
5:50 5.5ft 8s 6s 16 18 mph 1013.8mb 65f 63f
4:50 6ft 9s 7s 13 18 mph 1014mb 65f 64f
3:50 5.5ft 8s 6s 13 16 mph 1014.6mb 65f 64f
2:50 5.5ft 8s 6s 13 16 mph 1015.1mb 65f 63f
1:50 6ft 8s 6s 13 18 mph 1015.6mb 65f 63f
12:50 6ft 8s 6s 11 13 mph 1015.8mb 65f 63f
11:50 6ft 9s 7s 13 16 mph 1015.4mb 64f 64f
10:50 6ft 9s 7s 11 13 mph 1015.4mb 64f 64f
9:50 6ft 8s 7s 7 9 mph 1015.8mb 64f 64f
8:50 6ft 9s 7s 7 7 mph 1015.6mb 64f 64f
7:50 6.5ft 9s 7s 9 11 mph 1015mb 64f 63f
6:50 6ft 9s 7s 9 11 mph 1014.4mb 64f 63f
5:50 5.5ft 9s 7s 9 13 mph 1014.3mb 64f 64f
4:50 5ft 9s 7s 9 11 mph 1014.1mb 65f 63f
3:50 5ft 9s 8s 9 13 mph 1013.8mb 65f 63f
2:50 5ft 9s 7s 9 11 mph 1014.2mb 65f 63f
1:50 5ft 9s 8s 11 13 mph 1014.3mb 66f 63f
12:50 4.5ft 9s 8s 7 9 mph 1014.7mb 65f 62f
mar. 07/18 11:50 5ft 10s 8s 7 11 mph 1014.8mb 65f 63f
10:50 4.5ft 9s 8s 4 7 mph 1015.1mb 65f 63f
9:50 4.5ft 8s 7s 7 9 mph 1014.8mb 65f 63f
8:50 4.5ft 8s 7s 9 13 mph 1014.2mb 66f 63f
7:50 4.5ft 9s 7s 9 11 mph 1013.8mb 65f 64f
6:50 5ft 9s 7s 7 9 mph 1013.6mb 65f 64f
5:50 5ft 9s 7s 7 9 mph 1013.7mb 65f 65f
4:50 5ft 9s 8s 9 9 mph 1013.8mb 66f 65f
3:50 5ft 9s 8s 9 11 mph 1013.9mb 68f 66f